createdAt,value
2019-02-17T00:00:42.427Z,87.90
2019-02-17T00:03:12.568Z,88.00
2019-02-17T00:05:42.724Z,87.90
2019-02-17T00:08:31.964Z,88.10
2019-02-17T00:11:02.151Z,87.90
2019-02-17T00:13:32.306Z,87.90
2019-02-17T00:16:02.471Z,87.90
2019-02-17T00:18:32.727Z,87.90
2019-02-17T00:21:02.888Z,87.90
2019-02-17T00:23:33.037Z,87.90
2019-02-17T00:26:03.348Z,87.90
2019-02-17T00:28:34.067Z,87.90
2019-02-17T00:31:05.211Z,88.80
2019-02-17T00:33:35.347Z,87.90
2019-02-17T00:36:05.527Z,88.00
2019-02-17T00:38:35.670Z,87.90
2019-02-17T00:41:05.838Z,87.90
2019-02-17T00:43:35.981Z,87.90
2019-02-17T00:46:06.151Z,87.90
2019-02-17T00:48:36.333Z,87.90
2019-02-17T00:51:06.476Z,87.90
2019-02-17T00:53:37.015Z,87.90
2019-02-17T00:56:08.943Z,88.00
2019-02-17T00:58:39.092Z,87.90
2019-02-17T01:01:09.367Z,87.90
2019-02-17T01:03:39.511Z,87.90
2019-02-17T01:06:09.756Z,87.90
2019-02-17T01:08:40.074Z,87.90
2019-02-17T01:11:10.232Z,87.80
2019-02-17T01:13:40.396Z,87.90
2019-02-17T01:16:10.827Z,87.90
2019-02-17T01:18:41.006Z,87.90
2019-02-17T01:21:11.160Z,87.90
2019-02-17T01:23:41.415Z,87.90
2019-02-17T01:26:11.547Z,87.90
2019-02-17T01:28:41.737Z,87.90
2019-02-17T01:31:11.867Z,88.00
2019-02-17T01:33:42.123Z,87.90
2019-02-17T01:36:12.288Z,88.10
2019-02-17T01:38:42.447Z,88.80
2019-02-17T01:41:12.579Z,87.80
2019-02-17T01:43:43.660Z,88.10
2019-02-17T01:46:13.800Z,87.90
2019-02-17T01:48:44.041Z,88.00
2019-02-17T01:51:14.196Z,87.90
2019-02-17T01:53:45.142Z,88.00
2019-02-17T01:56:15.287Z,88.80
2019-02-17T01:58:45.446Z,88.10
2019-02-17T02:01:17.148Z,88.00
2019-02-17T02:03:47.519Z,87.90
2019-02-17T02:06:17.658Z,88.00
2019-02-17T02:08:47.912Z,87.90
2019-02-17T02:11:18.059Z,87.90
2019-02-17T02:13:48.300Z,87.90
2019-02-17T02:16:18.468Z,87.90
2019-02-17T02:18:48.863Z,87.90
2019-02-17T02:21:18.990Z,88.10
2019-02-17T02:23:49.139Z,88.80
2019-02-17T02:26:19.312Z,88.00
2019-02-17T02:28:49.551Z,88.10
2019-02-17T02:31:20.756Z,87.90
2019-02-17T02:33:50.900Z,87.90
2019-02-17T02:36:21.079Z,88.00
2019-02-17T02:38:51.312Z,88.20
2019-02-17T02:41:21.475Z,88.30
2019-02-17T02:43:51.800Z,88.30
2019-02-17T02:46:22.065Z,88.20
2019-02-17T02:48:52.218Z,88.20
2019-02-17T02:51:22.471Z,88.20
2019-02-17T02:53:52.848Z,88.10
2019-02-17T02:56:23.011Z,88.10
2019-02-17T02:58:53.144Z,88.10
2019-02-17T03:01:23.379Z,88.20
2019-02-17T03:03:53.556Z,88.10
2019-02-17T03:06:31.020Z,88.10
2019-02-17T03:09:01.184Z,88.80
2019-02-17T03:11:33.037Z,88.10
2019-02-17T03:14:03.188Z,88.00
2019-02-17T03:16:33.431Z,88.10
2019-02-17T03:19:03.563Z,88.00
2019-02-17T03:21:33.812Z,88.10
2019-02-17T03:24:03.943Z,87.90
2019-02-17T03:26:34.363Z,87.90
2019-02-17T03:29:04.509Z,88.00
2019-02-17T03:31:34.709Z,87.70
2019-02-17T03:34:04.849Z,87.70
2019-02-17T03:36:35.020Z,87.70
2019-02-17T03:39:06.363Z,87.60
2019-02-17T03:41:36.627Z,87.60
2019-02-17T03:44:06.819Z,87.80
2019-02-17T03:46:36.987Z,87.60
2019-02-17T03:49:07.377Z,87.60
2019-02-17T03:51:37.556Z,87.80
2019-02-17T03:54:07.708Z,87.70
2019-02-17T03:56:37.953Z,87.80
2019-02-17T03:59:08.078Z,87.70
2019-02-17T04:01:38.311Z,87.60
2019-02-17T04:04:08.576Z,87.50
2019-02-17T04:06:38.724Z,87.50
2019-02-17T04:09:09.406Z,88.40
2019-02-17T04:11:39.844Z,87.70
2019-02-17T04:14:10.003Z,87.60
2019-02-17T04:16:40.221Z,87.70
2019-02-17T04:19:10.376Z,87.50
2019-02-17T04:21:40.572Z,87.50
2019-02-17T04:24:10.784Z,87.50
2019-02-17T04:26:40.956Z,87.60
2019-02-17T04:29:11.103Z,87.50
2019-02-17T04:31:41.775Z,88.00
2019-02-17T04:34:11.911Z,87.60
2019-02-17T04:36:42.097Z,87.40
2019-02-17T04:39:12.239Z,87.40
2019-02-17T04:41:42.854Z,87.50
2019-02-17T04:44:13.092Z,88.20
2019-02-17T04:46:43.335Z,87.50
2019-02-17T04:49:13.500Z,87.50
2019-02-17T04:51:43.668Z,87.50
2019-02-17T04:54:13.807Z,87.50
2019-02-17T04:56:43.968Z,87.40
2019-02-17T04:59:14.099Z,87.50
2019-02-17T05:01:44.288Z,87.50
2019-02-17T05:04:14.435Z,87.40
2019-02-17T05:06:44.613Z,87.50
2019-02-17T05:09:15.185Z,87.40
2019-02-17T05:11:45.355Z,87.40
2019-02-17T05:14:15.500Z,87.40
2019-02-17T05:16:45.683Z,87.40
2019-02-17T05:19:15.824Z,87.50
2019-02-17T05:21:46.004Z,87.50
2019-02-17T05:24:16.138Z,87.40
2019-02-17T05:26:46.983Z,87.40
2019-02-17T05:29:17.134Z,87.40
2019-02-17T05:31:47.359Z,87.30
2019-02-17T05:34:17.499Z,87.40
2019-02-17T05:36:48.733Z,87.40
2019-02-17T05:39:19.690Z,87.40
2019-02-17T05:41:49.851Z,87.30
2019-02-17T05:44:24.250Z,87.40
2019-02-17T05:46:53.631Z,87.40
2019-02-17T05:49:23.779Z,87.40
2019-02-17T05:51:54.029Z,87.40
2019-02-17T05:54:24.194Z,87.40
2019-02-17T05:56:54.518Z,87.40
2019-02-17T05:59:24.702Z,87.50
2019-02-17T06:01:54.851Z,87.50
2019-02-17T06:04:25.009Z,88.30
2019-02-17T06:06:55.212Z,87.50
2019-02-17T06:09:25.369Z,87.50
2019-02-17T06:11:55.508Z,87.50
2019-02-17T06:14:25.668Z,87.50
2019-02-17T06:16:55.808Z,87.60
2019-02-17T06:19:25.971Z,87.40
2019-02-17T06:21:56.116Z,87.50
2019-02-17T06:24:26.316Z,87.50
2019-02-17T06:26:56.747Z,87.40
2019-02-17T06:29:26.895Z,87.50
2019-02-17T06:32:17.124Z,87.50
2019-02-17T06:34:47.338Z,87.50
2019-02-17T06:37:17.517Z,87.50
2019-02-17T06:39:47.647Z,87.50
2019-02-17T06:42:17.816Z,87.50
2019-02-17T06:44:47.963Z,87.40
2019-02-17T06:47:21.949Z,87.50
2019-02-17T06:49:52.116Z,87.40
2019-02-17T06:52:22.287Z,87.40
2019-02-17T06:55:05.120Z,87.40
2019-02-17T06:57:39.208Z,87.30
2019-02-17T07:00:23.110Z,87.80
2019-02-17T07:02:53.272Z,87.40
2019-02-17T07:05:31.899Z,87.50
2019-02-17T07:08:02.151Z,87.40
2019-02-17T07:10:32.286Z,87.40
2019-02-17T07:13:02.446Z,87.50
2019-02-17T07:15:32.635Z,87.50
2019-02-17T07:18:02.855Z,87.50
2019-02-17T07:20:33.028Z,87.50
2019-02-17T07:23:03.180Z,87.60
2019-02-17T07:25:33.333Z,87.60
2019-02-17T07:28:03.521Z,87.60
2019-02-17T07:30:33.691Z,87.60
2019-02-17T07:33:03.847Z,87.50
2019-02-17T07:35:34.011Z,87.50
2019-02-17T07:38:04.143Z,87.50
2019-02-17T07:40:34.295Z,87.40
2019-02-17T07:43:04.425Z,87.50
2019-02-17T07:45:34.587Z,87.50
2019-02-17T07:48:04.730Z,87.50
2019-02-17T07:50:34.908Z,87.40
2019-02-17T07:53:05.726Z,87.40
2019-02-17T07:55:36.499Z,87.40
2019-02-17T07:58:06.705Z,87.40
2019-02-17T08:00:36.899Z,87.30
2019-02-17T08:03:07.247Z,87.40
2019-02-17T08:05:37.768Z,87.40
2019-02-17T08:08:07.979Z,87.40
2019-02-17T08:10:38.287Z,87.40
2019-02-17T08:13:09.155Z,87.50
2019-02-17T08:15:39.935Z,87.70
2019-02-17T08:18:10.120Z,87.70
2019-02-17T08:20:41.273Z,87.50
2019-02-17T08:23:11.932Z,87.70
2019-02-17T08:25:42.151Z,87.70
2019-02-17T08:28:12.396Z,87.70
2019-02-17T08:30:42.584Z,87.70
2019-02-17T08:33:12.827Z,88.30
2019-02-17T08:35:43.063Z,87.70
2019-02-17T08:38:13.433Z,87.70
2019-02-17T08:40:44.679Z,87.90
2019-02-17T08:43:14.827Z,87.70
2019-02-17T08:45:45.008Z,87.70
2019-02-17T08:48:15.163Z,87.70
2019-02-17T08:50:45.344Z,87.70
2019-02-17T08:53:15.487Z,87.70
2019-02-17T08:55:46.027Z,87.70
2019-02-17T08:58:16.237Z,87.80
2019-02-17T09:00:46.409Z,87.70
2019-02-17T09:03:16.844Z,87.70
2019-02-17T09:05:47.017Z,87.70
2019-02-17T09:08:17.179Z,87.80
2019-02-17T09:10:47.353Z,87.70
2019-02-17T09:13:18.611Z,87.20
2019-02-17T09:15:49.016Z,87.70
2019-02-17T09:18:19.171Z,87.50
2019-02-17T09:20:49.396Z,87.50
2019-02-17T09:23:19.667Z,87.50
2019-02-17T09:25:49.852Z,87.70
2019-02-17T09:28:20.066Z,87.60
2019-02-17T09:30:50.279Z,87.50
2019-02-17T09:33:20.504Z,87.70
2019-02-17T09:35:50.691Z,87.50
2019-02-17T09:38:21.004Z,87.50
2019-02-17T09:40:51.162Z,87.60
2019-02-17T09:43:21.323Z,87.50
2019-02-17T09:45:51.470Z,87.50
2019-02-17T09:48:22.364Z,87.60
2019-02-17T09:50:52.529Z,87.50
2019-02-17T09:53:22.683Z,87.50
2019-02-17T09:55:55.107Z,87.50
2019-02-17T09:58:24.616Z,87.50
2019-02-17T10:00:55.152Z,87.60
2019-02-17T10:03:25.320Z,87.60
2019-02-17T10:05:55.471Z,87.50
2019-02-17T10:08:25.644Z,87.50
2019-02-17T10:10:55.851Z,87.50
2019-02-17T10:13:26.111Z,87.30
2019-02-17T10:15:56.251Z,87.40
2019-02-17T10:18:26.652Z,87.40
2019-02-17T10:20:56.795Z,87.40
2019-02-17T10:23:26.967Z,87.40
2019-02-17T10:25:57.127Z,87.50
2019-02-17T10:28:27.311Z,87.40
2019-02-17T10:30:58.232Z,87.40
2019-02-17T10:33:28.407Z,87.30
2019-02-17T10:35:58.554Z,87.30
2019-02-17T10:38:28.727Z,87.50
2019-02-17T10:40:58.863Z,87.40
2019-02-17T10:43:29.114Z,87.20
2019-02-17T10:46:00.254Z,87.20
2019-02-17T10:48:31.666Z,87.20
2019-02-17T10:51:01.839Z,87.00
2019-02-17T10:53:32.003Z,87.00
2019-02-17T10:56:02.143Z,86.90
2019-02-17T10:58:32.411Z,86.90
2019-02-17T11:01:02.607Z,86.80
2019-02-17T11:03:32.819Z,86.70
2019-02-17T11:06:03.321Z,86.70
2019-02-17T11:08:33.555Z,86.70
2019-02-17T11:11:04.437Z,86.60
2019-02-17T11:13:34.524Z,86.10
2019-02-17T11:16:04.767Z,86.50
2019-02-17T11:18:35.039Z,86.60
2019-02-17T11:21:05.219Z,86.40
2019-02-17T11:23:36.371Z,86.30
2019-02-17T11:26:06.516Z,86.20
2019-02-17T11:28:36.677Z,86.20
2019-02-17T11:31:06.968Z,86.20
2019-02-17T11:33:38.029Z,86.30
2019-02-17T11:36:08.206Z,86.20
2019-02-17T11:38:38.433Z,86.20
2019-02-17T11:41:08.603Z,86.10
2019-02-17T11:43:38.739Z,86.10
2019-02-17T11:46:08.984Z,86.20
2019-02-17T11:48:39.167Z,85.90
2019-02-17T11:51:09.339Z,85.90
2019-02-17T11:53:39.514Z,86.00
2019-02-17T11:56:10.577Z,85.90
2019-02-17T11:58:40.830Z,85.80
2019-02-17T12:01:10.980Z,86.60
2019-02-17T12:03:41.140Z,85.70
2019-02-17T12:06:11.323Z,85.70
2019-02-17T12:08:48.457Z,85.70
2019-02-17T12:11:18.616Z,85.70
2019-02-17T12:13:48.751Z,85.70
2019-02-17T12:16:18.908Z,85.70
2019-02-17T12:18:49.751Z,85.80
2019-02-17T12:21:52.111Z,85.80
2019-02-17T12:24:42.895Z,85.70
2019-02-17T12:27:31.667Z,86.50
2019-02-17T12:30:11.164Z,85.80
2019-02-17T12:32:41.403Z,85.70
2019-02-17T12:35:11.556Z,85.70
2019-02-17T12:37:42.107Z,85.70
2019-02-17T12:40:12.724Z,85.70
2019-02-17T12:42:42.919Z,85.70
2019-02-17T12:45:18.052Z,85.70
2019-02-17T12:47:55.461Z,85.70
2019-02-17T12:50:18.283Z,85.60
2019-02-17T12:52:48.447Z,85.50
2019-02-17T12:55:18.685Z,85.60
2019-02-17T12:57:48.823Z,85.50
2019-02-17T13:00:19.904Z,85.50
2019-02-17T13:02:50.055Z,85.40
2019-02-17T13:05:22.032Z,85.50
2019-02-17T13:07:52.537Z,85.30
2019-02-17T13:10:23.601Z,85.40
2019-02-17T13:12:54.239Z,85.50
2019-02-17T13:15:24.432Z,85.30
2019-02-17T13:17:54.959Z,85.30
2019-02-17T13:20:25.515Z,85.90
2019-02-17T13:22:55.723Z,87.60
2019-02-17T13:25:25.972Z,88.30
2019-02-17T13:27:56.123Z,88.30
2019-02-17T13:30:26.335Z,89.80
2019-02-17T13:32:56.475Z,90.30
2019-02-17T13:35:26.634Z,91.00
2019-02-17T13:37:57.711Z,90.40
2019-02-17T13:40:27.923Z,90.30
2019-02-17T13:42:58.083Z,90.10
2019-02-17T13:45:28.357Z,90.00
2019-02-17T13:50:43.015Z,89.90
2019-02-17T13:53:13.176Z,88.70
2019-02-17T13:55:43.347Z,89.00
2019-02-17T13:58:13.500Z,89.80
2019-02-17T14:00:44.199Z,89.70
2019-02-17T14:03:14.439Z,89.20
2019-02-17T14:05:44.608Z,89.30
2019-02-17T14:08:14.763Z,89.40
2019-02-17T14:10:44.936Z,89.60
2019-02-17T14:13:16.060Z,89.40
2019-02-17T14:15:47.192Z,89.20
2019-02-17T14:18:17.340Z,89.10
2019-02-17T14:20:47.507Z,89.20
2019-02-17T14:23:17.651Z,89.40
2019-02-17T14:25:48.004Z,89.10
2019-02-17T14:28:18.239Z,89.10
2019-02-17T14:30:48.897Z,89.10
2019-02-17T14:33:19.183Z,89.40
2019-02-17T14:35:49.347Z,89.10
2019-02-17T14:38:19.491Z,88.90
2019-02-17T14:40:49.664Z,89.00
2019-02-17T14:43:19.811Z,88.80
2019-02-17T14:45:49.940Z,88.90
2019-02-17T14:48:20.161Z,88.70
2019-02-17T14:50:50.287Z,88.70
2019-02-17T14:53:20.432Z,88.70
2019-02-17T14:55:51.403Z,88.70
2019-02-17T14:58:21.785Z,88.60
2019-02-17T15:00:52.057Z,88.60
2019-02-17T15:03:22.237Z,88.30
2019-02-17T15:05:53.752Z,88.50
2019-02-17T15:08:23.999Z,88.60
2019-02-17T15:10:54.355Z,88.50
2019-02-17T15:13:24.928Z,88.50
2019-02-17T15:15:55.149Z,88.40
2019-02-17T15:18:25.328Z,88.30
2019-02-17T15:20:55.483Z,88.30
2019-02-17T15:23:25.619Z,88.20
2019-02-17T15:25:56.575Z,88.30
2019-02-17T15:28:26.723Z,88.40
2019-02-17T15:30:57.106Z,88.30
2019-02-17T15:33:27.246Z,88.20
2019-02-17T15:35:57.419Z,88.30
2019-02-17T15:38:27.553Z,88.20
2019-02-17T15:40:57.775Z,88.30
2019-02-17T15:43:28.380Z,88.20
2019-02-17T15:45:58.605Z,88.10
2019-02-17T15:48:28.740Z,88.10
2019-02-17T15:51:06.274Z,88.20
2019-02-17T15:53:32.352Z,88.30
2019-02-17T15:56:02.503Z,88.30
2019-02-17T15:58:32.756Z,88.40
2019-02-17T16:01:03.766Z,88.30
2019-02-17T16:03:34.935Z,88.40
2019-02-17T16:06:05.380Z,88.50
2019-02-17T16:08:37.311Z,88.60
2019-02-17T16:11:07.517Z,88.50
2019-02-17T16:13:37.711Z,88.50
2019-02-17T16:16:09.371Z,88.60
2019-02-17T16:18:39.743Z,88.60
2019-02-17T16:21:09.883Z,88.70
2019-02-17T16:23:40.520Z,88.70
2019-02-17T16:26:10.960Z,88.70
2019-02-17T16:28:41.514Z,88.70
2019-02-17T16:31:12.930Z,88.60
2019-02-17T16:33:43.747Z,88.80
2019-02-17T16:36:15.376Z,88.80
2019-02-17T16:38:45.846Z,88.80
2019-02-17T16:41:17.310Z,88.80
2019-02-17T16:43:48.752Z,88.80
2019-02-17T16:46:19.187Z,89.00
2019-02-17T16:48:50.501Z,89.20
2019-02-17T16:51:20.946Z,89.20
2019-02-17T16:53:53.101Z,89.10
2019-02-17T16:56:23.451Z,89.20
2019-02-17T16:58:54.162Z,89.30
2019-02-17T17:01:24.647Z,89.20
2019-02-17T17:03:55.054Z,89.20
2019-02-17T17:06:25.517Z,89.40
2019-02-17T17:08:56.174Z,89.40
2019-02-17T17:11:26.670Z,89.30
2019-02-17T17:14:00.019Z,89.30
2019-02-17T17:16:32.766Z,89.40
2019-02-17T17:19:03.334Z,89.40
2019-02-17T17:21:33.794Z,89.70
2019-02-17T17:24:04.336Z,89.70
2019-02-17T17:26:37.115Z,89.60
2019-02-17T17:29:09.872Z,89.60
2019-02-17T17:31:41.546Z,89.60
2019-02-17T17:34:12.073Z,89.80
2019-02-17T17:36:42.587Z,89.80
2019-02-17T17:39:13.109Z,89.90
2019-02-17T17:41:43.786Z,89.80
2019-02-17T17:44:14.338Z,90.00
2019-02-17T17:46:45.772Z,89.80
2019-02-17T17:49:19.493Z,90.00
2019-02-17T17:51:54.624Z,90.00
2019-02-17T17:54:25.033Z,90.00
2019-02-17T17:56:55.418Z,89.80
2019-02-17T17:59:25.835Z,90.00
2019-02-17T18:01:56.379Z,90.00
2019-02-17T18:04:26.855Z,90.00
2019-02-17T18:06:57.395Z,90.10
2019-02-17T18:09:27.837Z,90.20
2019-02-17T18:11:58.336Z,90.20
2019-02-17T18:14:29.132Z,90.10
2019-02-17T18:16:59.572Z,90.20
2019-02-17T18:19:31.156Z,90.20
2019-02-17T18:22:01.633Z,90.20
2019-02-17T18:24:32.465Z,90.20
2019-02-17T18:27:02.928Z,90.20
2019-02-17T18:29:33.155Z,90.30
2019-02-17T18:32:04.279Z,90.30
2019-02-17T18:34:34.434Z,90.20
2019-02-17T18:37:05.498Z,90.30
2019-02-17T18:39:35.648Z,90.30
2019-02-17T18:42:05.803Z,90.30
2019-02-17T18:44:36.486Z,90.40
2019-02-17T18:47:06.631Z,90.40
2019-02-17T18:49:36.755Z,90.30
2019-02-17T18:52:07.851Z,90.20
2019-02-17T18:54:39.235Z,90.20
2019-02-17T18:57:09.459Z,90.30
2019-02-17T18:59:39.655Z,90.40
2019-02-17T19:02:09.848Z,90.40
2019-02-17T19:04:39.975Z,90.50
2019-02-17T19:07:10.147Z,90.50
2019-02-17T19:09:40.271Z,90.50
2019-02-17T19:12:10.419Z,90.50
2019-02-17T19:14:40.571Z,90.50
2019-02-17T19:17:10.744Z,90.40
2019-02-17T19:19:40.879Z,90.40
2019-02-17T19:22:11.997Z,90.40
2019-02-17T19:24:42.143Z,90.40
2019-02-17T19:27:13.256Z,90.40
2019-02-17T19:29:43.432Z,90.40
2019-02-17T19:32:13.659Z,90.40
2019-02-17T19:34:44.740Z,90.40
2019-02-17T19:37:14.927Z,90.40
2019-02-17T19:39:45.057Z,90.40
2019-02-17T19:42:15.215Z,90.40
2019-02-17T19:44:45.353Z,90.40
2019-02-17T19:47:15.516Z,90.40
2019-02-17T19:49:45.640Z,90.40
2019-02-17T19:52:15.796Z,90.40
2019-02-17T19:54:45.935Z,90.40
2019-02-17T19:57:16.118Z,90.50
2019-02-17T19:59:47.243Z,90.50
2019-02-17T20:02:19.066Z,90.50
2019-02-17T20:05:05.176Z,90.50
2019-02-17T20:07:35.727Z,90.60
2019-02-17T20:10:06.699Z,90.50
2019-02-17T20:12:36.859Z,90.60
2019-02-17T20:15:07.064Z,90.50
2019-02-17T20:17:37.239Z,90.50
2019-02-17T20:20:07.446Z,90.50
2019-02-17T20:22:37.813Z,90.60
2019-02-17T20:25:08.175Z,90.60
2019-02-17T20:27:38.348Z,90.70
2019-02-17T20:30:09.783Z,90.70
2019-02-17T20:32:41.278Z,90.70
2019-02-17T20:35:11.605Z,90.60
2019-02-17T20:37:41.887Z,90.70
2019-02-17T20:40:12.080Z,90.70
2019-02-17T20:42:42.251Z,90.60
2019-02-17T20:45:12.383Z,90.70
2019-02-17T20:47:42.539Z,90.60
2019-02-17T20:50:12.715Z,90.60
2019-02-17T20:52:42.923Z,90.60
2019-02-17T20:55:13.791Z,91.00
2019-02-17T20:57:43.943Z,90.60
2019-02-17T21:00:14.107Z,90.60
2019-02-17T21:02:44.256Z,90.70
2019-02-17T21:05:14.427Z,90.60
2019-02-17T21:07:44.564Z,90.70
2019-02-17T21:10:14.830Z,90.70
2019-02-17T21:12:45.048Z,90.80
2019-02-17T21:15:16.579Z,90.70
2019-02-17T21:17:46.727Z,90.80
2019-02-17T21:20:17.779Z,90.70
2019-02-17T21:22:47.956Z,90.80
2019-02-17T21:25:18.091Z,90.70
2019-02-17T21:27:48.979Z,90.70
2019-02-17T21:30:19.143Z,90.70
2019-02-17T21:32:49.286Z,90.70
2019-02-17T21:35:19.477Z,91.10
2019-02-17T21:37:49.719Z,90.50
2019-02-17T21:40:19.883Z,90.80
2019-02-17T21:42:50.027Z,90.70
2019-02-17T21:45:20.183Z,90.70
2019-02-17T21:47:50.324Z,90.70
2019-02-17T21:50:20.995Z,90.60
2019-02-17T21:52:51.124Z,90.70
2019-02-17T21:55:21.307Z,90.60
2019-02-17T21:57:51.448Z,90.70
2019-02-17T22:00:21.614Z,90.70
2019-02-17T22:02:51.803Z,90.70
2019-02-17T22:05:21.989Z,90.80
2019-02-17T22:07:52.132Z,90.70
2019-02-17T22:10:22.284Z,90.70
2019-02-17T22:12:52.975Z,90.80
2019-02-17T22:15:23.144Z,90.70
2019-02-17T22:17:54.195Z,90.70
2019-02-17T22:20:24.355Z,90.90
2019-02-17T22:22:54.564Z,90.80
2019-02-17T22:25:24.736Z,90.80
2019-02-17T22:27:54.864Z,90.80
2019-02-17T22:30:25.027Z,90.90
2019-02-17T22:32:55.186Z,90.90
2019-02-17T22:35:25.663Z,90.90
2019-02-17T22:37:55.870Z,91.00
2019-02-17T22:40:26.037Z,90.90
2019-02-17T22:42:56.161Z,91.00
2019-02-17T22:45:26.318Z,90.90
2019-02-17T22:47:56.455Z,91.00
2019-02-17T22:50:26.693Z,90.90
2019-02-17T22:52:56.823Z,91.00
2019-02-17T22:55:26.997Z,90.90
2019-02-17T22:57:57.127Z,91.00
2019-02-17T23:00:47.708Z,91.00
2019-02-17T23:03:19.375Z,91.00
2019-02-17T23:05:49.933Z,90.90
2019-02-17T23:08:20.209Z,91.00
2019-02-17T23:10:51.023Z,91.00
2019-02-17T23:13:21.153Z,91.00
2019-02-17T23:15:51.375Z,91.00
2019-02-17T23:18:21.811Z,91.00
2019-02-17T23:20:51.971Z,91.00
2019-02-17T23:23:22.108Z,91.00
2019-02-17T23:25:52.340Z,91.00
2019-02-17T23:28:22.483Z,91.10
2019-02-17T23:30:52.746Z,90.90
2019-02-17T23:33:23.225Z,91.00
2019-02-17T23:35:53.375Z,91.00
2019-02-17T23:38:24.427Z,91.10
2019-02-17T23:40:54.599Z,91.00
2019-02-17T23:43:24.732Z,91.10
2019-02-17T23:45:54.899Z,91.00
2019-02-17T23:48:25.042Z,91.10
2019-02-17T23:50:55.187Z,91.00
2019-02-17T23:53:32.858Z,91.10
2019-02-17T23:56:03.680Z,91.00
2019-02-17T23:58:34.611Z,91.00
